Time;durP1;ratioP1;P1;durP2;ratioP2;P2;SDS_P1;SDS_P2;PMS_P1;PMS_P2;Temp;Humidity;BMP_temperature;BMP_pressure;BME280_temperature;BME280_humidity;BME280_pressure;Samples;Min_cycle;Max_cycle;Signal;HPM_P1;HPM_P2
2023/01/16 00:01:50;;;;;;;7.73;2.60;;;5.50;99.90;;;;;;5031879;28;20729;-70
2023/01/16 00:04:17;;;;;;;6.07;2.83;;;5.50;99.90;;;;;;5024203;28;20593;-69
2023/01/16 00:06:44;;;;;;;4.73;2.30;;;5.50;99.90;;;;;;5023758;28;20204;-69
2023/01/16 00:09:10;;;;;;;7.90;3.43;;;5.50;99.90;;;;;;5023872;28;20218;-68
2023/01/16 00:11:37;;;;;;;9.23;2.53;;;5.50;99.90;;;;;;5030110;28;20564;-68
2023/01/16 00:14:04;;;;;;;7.00;2.60;;;5.50;99.90;;;;;;5020364;28;20739;-68
2023/01/16 00:16:31;;;;;;;6.00;3.27;;;5.60;99.90;;;;;;5019220;28;20287;-68
2023/01/16 00:18:58;;;;;;;5.83;2.40;;;5.50;99.90;;;;;;5029383;28;20206;-69
2023/01/16 00:21:25;;;;;;;8.90;2.87;;;5.50;99.90;;;;;;5018984;28;20699;-68
2023/01/16 00:23:54;;;;;;;8.60;2.60;;;5.50;99.90;;;;;;5030209;28;20213;-68
2023/01/16 00:26:22;;;;;;;5.70;2.70;;;5.50;99.90;;;;;;5023604;28;20204;-67
2023/01/16 00:28:49;;;;;;;7.47;2.90;;;5.50;99.90;;;;;;5026904;28;20236;-69
2023/01/16 00:31:16;;;;;;;4.70;2.43;;;5.60;99.90;;;;;;5025548;28;20223;-68
2023/01/16 00:33:43;;;;;;;4.63;3.27;;;5.60;99.90;;;;;;5020005;28;20281;-68
2023/01/16 00:36:11;;;;;;;6.63;2.83;;;5.60;99.90;;;;;;5027985;28;20207;-68
2023/01/16 00:38:38;;;;;;;6.87;3.13;;;5.60;99.90;;;;;;5022340;28;20631;-68
2023/01/16 00:41:05;;;;;;;5.70;2.70;;;5.60;99.90;;;;;;5022821;28;20309;-68
2023/01/16 00:43:32;;;;;;;8.63;3.00;;;5.60;99.90;;;;;;5024920;28;20677;-68
2023/01/16 00:45:59;;;;;;;8.10;3.17;;;5.60;99.90;;;;;;5023195;28;20226;-68
2023/01/16 00:48:25;;;;;;;8.70;3.53;;;5.50;99.90;;;;;;5025634;28;20305;-67
2023/01/16 00:50:52;;;;;;;6.73;3.40;;;5.50;99.90;;;;;;5021803;28;20250;-68
2023/01/16 00:53:19;;;;;;;8.17;3.60;;;5.50;99.90;;;;;;5021900;28;20401;-68
2023/01/16 00:55:45;;;;;;;10.57;3.60;;;5.50;99.90;;;;;;5017888;28;20673;-68
2023/01/16 00:58:12;;;;;;;5.43;3.50;;;5.50;99.90;;;;;;5028855;28;20849;-68
2023/01/16 01:00:39;;;;;;;9.30;3.93;;;5.60;99.90;;;;;;5019409;28;20205;-69
2023/01/16 01:03:06;;;;;;;5.10;3.10;;;5.60;99.90;;;;;;5022531;28;20268;-69
2023/01/16 01:05:36;;;;;;;7.77;3.57;;;5.60;99.90;;;;;;5026914;28;20200;-69
2023/01/16 01:08:03;;;;;;;6.63;4.03;;;5.60;99.90;;;;;;5019742;28;20256;-69
2023/01/16 01:10:30;;;;;;;7.47;4.07;;;5.60;99.90;;;;;;5025304;28;20709;-68
2023/01/16 01:12:56;;;;;;;6.00;4.33;;;5.70;99.90;;;;;;5024091;28;20201;-69
2023/01/16 01:15:23;;;;;;;8.77;4.30;;;5.70;99.90;;;;;;5029874;28;20220;-69
2023/01/16 01:17:50;;;;;;;6.60;4.10;;;5.70;99.90;;;;;;5026379;28;20907;-69
2023/01/16 01:20:17;;;;;;;8.17;4.67;;;5.70;99.90;;;;;;5021536;28;20213;-68
2023/01/16 01:22:45;;;;;;;7.50;4.60;;;5.60;99.90;;;;;;5020943;28;20611;-68
2023/01/16 01:25:12;;;;;;;7.97;4.87;;;5.60;99.90;;;;;;5027663;28;20209;-68
2023/01/16 01:27:39;;;;;;;6.70;5.17;;;5.60;99.90;;;;;;5031547;28;20218;-68
2023/01/16 01:30:07;;;;;;;9.20;5.10;;;5.50;99.90;;;;;;5031068;28;20206;-69
2023/01/16 01:32:36;;;;;;;6.83;5.27;;;5.60;99.90;;;;;;5029529;28;20218;-69
2023/01/16 01:35:07;;;;;;;11.87;5.53;;;5.60;99.90;;;;;;5030043;28;20254;-69
2023/01/16 01:37:35;;;;;;;8.33;5.70;;;5.60;99.90;;;;;;5025319;28;20623;-68
2023/01/16 01:40:04;;;;;;;9.03;5.60;;;5.60;99.90;;;;;;5034725;28;20262;-68
2023/01/16 01:42:43;;;;;;;10.77;5.77;;;5.50;99.90;;;;;;5025304;28;20237;-68
2023/01/16 01:45:21;;;;;;;9.20;5.83;;;5.60;99.90;;;;;;5026509;28;20253;-69
2023/01/16 01:48:11;;;;;;;9.63;6.43;;;5.50;99.90;;;;;;5022035;28;20282;-68
2023/01/16 01:50:47;;;;;;;11.10;6.13;;;5.50;99.90;;;;;;5015514;28;20210;-68
2023/01/16 01:53:22;;;;;;;10.90;6.27;;;5.60;99.90;;;;;;5020931;28;20656;-68
2023/01/16 01:55:50;;;;;;;11.17;6.57;;;5.50;99.90;;;;;;5025572;28;20285;-69
2023/01/16 01:58:21;;;;;;;9.67;6.57;;;5.60;99.90;;;;;;5029840;28;20567;-69
2023/01/16 02:00:52;;;;;;;12.70;7.60;;;5.60;99.90;;;;;;5021877;28;20733;-69
2023/01/16 02:03:28;;;;;;;12.77;8.20;;;5.60;99.90;;;;;;5032824;28;20640;-69
2023/01/16 02:05:59;;;;;;;13.50;8.23;;;5.70;99.90;;;;;;5032371;28;20243;-69
2023/01/16 02:08:31;;;;;;;16.37;8.90;;;5.70;99.90;;;;;;5029784;28;20299;-68
2023/01/16 02:11:08;;;;;;;13.87;9.80;;;5.60;99.90;;;;;;5028707;28;20206;-68
2023/01/16 02:13:38;;;;;;;19.20;10.90;;;5.70;99.90;;;;;;5032346;28;20585;-69
2023/01/16 02:21:53;;;;;;;18.13;11.47;;;5.70;99.90;;;;;;5030196;28;20225;-68
2023/01/16 02:24:51;;;;;;;22.20;13.10;;;5.70;99.90;;;;;;5023275;28;20245;-68
2023/01/16 02:27:18;;;;;;;22.00;13.80;;;5.70;99.90;;;;;;5025154;28;20211;-68
2023/01/16 02:30:25;;;;;;;22.10;12.97;;;5.60;99.90;;;;;;5030279;28;20236;-68
2023/01/16 02:33:09;;;;;;;25.13;14.27;;;5.60;99.90;;;;;;5027428;28;20222;-68
2023/01/16 02:35:54;;;;;;;22.93;13.43;;;5.60;99.90;;;;;;5032406;28;20207;-68
2023/01/16 02:38:37;;;;;;;20.13;12.23;;;5.60;99.90;;;;;;5025131;28;20230;-68
2023/01/16 02:41:43;;;;;;;19.63;13.10;;;5.60;99.90;;;;;;5030219;28;20298;-68
2023/01/16 02:44:32;;;;;;;20.10;12.30;;;5.60;99.90;;;;;;5025004;28;20212;-68
2023/01/16 02:47:25;;;;;;;22.97;12.50;;;5.70;99.90;;;;;;5028579;28;20700;-67
2023/01/16 02:50:07;;;;;;;21.60;11.73;;;5.60;99.90;;;;;;5026690;28;20239;-68
2023/01/16 02:53:12;;;;;;;17.70;11.57;;;5.70;99.90;;;;;;5026205;28;20202;-67
2023/01/16 02:56:07;;;;;;;20.07;11.53;;;5.70;99.90;;;;;;5023415;28;20264;-68
2023/01/16 02:58:38;;;;;;;16.80;11.03;;;5.60;99.90;;;;;;5028671;28;20284;-68
2023/01/16 03:01:06;;;;;;;15.40;9.80;;;5.60;99.90;;;;;;5026092;28;20211;-69
2023/01/16 03:03:42;;;;;;;18.07;8.80;;;5.60;99.90;;;;;;5028738;28;20232;-68
2023/01/16 03:06:44;;;;;;;17.73;8.93;;;5.60;99.90;;;;;;5026366;28;20235;-69
2023/01/16 03:09:32;;;;;;;19.13;8.40;;;5.60;99.90;;;;;;5027540;28;20669;-68
2023/01/16 03:12:19;;;;;;;18.97;9.37;;;5.50;99.90;;;;;;5023594;28;20234;-68
2023/01/16 03:15:14;;;;;;;15.33;7.43;;;5.50;99.90;;;;;;4985170;28;20281;-68
2023/01/16 03:18:22;;;;;;;13.07;7.67;;;5.50;99.90;;;;;;5026895;28;20226;-68
2023/01/16 03:21:21;;;;;;;15.57;6.37;;;5.50;99.90;;;;;;5025119;28;20611;-68
2023/01/16 03:23:53;;;;;;;9.03;5.63;;;5.50;99.90;;;;;;5012335;28;20216;-68
2023/01/16 03:26:25;;;;;;;17.57;5.57;;;5.50;99.90;;;;;;5027221;28;20555;-69
2023/01/16 03:29:02;;;;;;;11.83;5.60;;;5.50;99.90;;;;;;5028860;28;20205;-68
2023/01/16 03:31:40;;;;;;;8.10;4.83;;;5.50;99.90;;;;;;5029299;28;20241;-68
2023/01/16 03:34:13;;;;;;;10.07;5.30;;;5.50;99.90;;;;;;5030021;28;20210;-69
2023/01/16 03:37:09;;;;;;;9.27;4.60;;;5.50;99.90;;;;;;5024086;28;20675;-68
2023/01/16 03:39:42;;;;;;;12.03;4.40;;;5.50;99.90;;;;;;5023416;28;20238;-68
2023/01/16 03:42:16;;;;;;;6.20;4.43;;;5.50;99.90;;;;;;5024494;28;20232;-68
2023/01/16 03:44:50;;;;;;;9.73;4.33;;;5.50;99.90;;;;;;5023376;28;20560;-68
2023/01/16 03:47:25;;;;;;;8.50;4.03;;;5.50;99.90;;;;;;5023307;28;20660;-69
2023/01/16 03:49:58;;;;;;;10.57;4.60;;;5.50;99.90;;;;;;5026429;28;20305;-69
2023/01/16 03:52:31;;;;;;;5.50;4.07;;;5.40;99.90;;;;;;5025859;28;20659;-69
2023/01/16 03:55:24;;;;;;;9.80;4.40;;;5.40;99.90;;;;;;5017335;28;20206;-69
2023/01/16 03:58:13;;;;;;;7.40;4.20;;;5.30;99.90;;;;;;5030062;28;20293;-69
2023/01/16 04:01:22;;;;;;;12.07;4.03;;;5.30;99.90;;;;;;5022990;28;20255;-69
2023/01/16 04:04:04;;;;;;;8.13;4.67;;;5.20;99.90;;;;;;5021975;28;20201;-69
2023/01/16 04:07:03;;;;;;;7.23;3.43;;;5.20;99.90;;;;;;5021372;28;20244;-67
2023/01/16 04:10:00;;;;;;;8.47;3.80;;;5.00;99.90;;;;;;5024817;28;20290;-68
2023/01/16 04:12:35;;;;;;;8.90;3.90;;;5.00;99.90;;;;;;5021342;28;20819;-68
2023/01/16 04:15:06;;;;;;;10.23;3.90;;;4.90;99.90;;;;;;5028723;28;20687;-68
2023/01/16 04:17:35;;;;;;;9.73;3.83;;;4.80;99.90;;;;;;5022782;28;20226;-68
2023/01/16 04:20:03;;;;;;;7.23;4.07;;;4.80;99.90;;;;;;5023794;28;20217;-68
2023/01/16 04:22:30;;;;;;;11.37;4.30;;;4.70;99.90;;;;;;5020834;28;20229;-69
2023/01/16 04:25:00;;;;;;;9.77;3.67;;;4.70;99.90;;;;;;5021992;28;20267;-68
2023/01/16 04:27:27;;;;;;;4.43;3.43;;;4.70;99.90;;;;;;5028406;28;20218;-68
2023/01/16 04:29:55;;;;;;;10.70;3.87;;;4.60;99.90;;;;;;5026456;28;20661;-68
2023/01/16 04:32:22;;;;;;;7.27;4.03;;;4.60;99.90;;;;;;5024959;28;20690;-68
2023/01/16 04:34:49;;;;;;;6.10;3.73;;;4.60;99.90;;;;;;5027598;28;20209;-68
2023/01/16 04:37:17;;;;;;;11.03;3.90;;;4.50;99.90;;;;;;5019591;28;20214;-69
2023/01/16 04:39:46;;;;;;;8.87;4.03;;;4.50;99.90;;;;;;5033728;28;20237;-67
2023/01/16 04:42:13;;;;;;;9.30;3.73;;;4.50;99.90;;;;;;5022411;28;20761;-68
2023/01/16 04:44:40;;;;;;;5.67;3.50;;;4.40;99.90;;;;;;5022566;28;20209;-70
2023/01/16 04:47:06;;;;;;;6.73;3.40;;;4.40;99.90;;;;;;5027823;28;20660;-68
2023/01/16 04:49:33;;;;;;;8.57;3.87;;;4.40;99.90;;;;;;5024775;28;20293;-68
2023/01/16 04:52:00;;;;;;;7.87;3.17;;;4.40;99.90;;;;;;5031243;28;20209;-68
2023/01/16 04:54:27;;;;;;;13.40;3.90;;;4.40;99.90;;;;;;5028180;28;20197;-68
2023/01/16 04:56:54;;;;;;;10.07;3.90;;;4.40;99.90;;;;;;5026747;28;20739;-68
2023/01/16 04:59:20;;;;;;;10.23;3.30;;;4.30;99.90;;;;;;5020827;28;20202;-70
2023/01/16 05:01:47;;;;;;;6.70;3.50;;;4.30;99.90;;;;;;5029506;28;20219;-68
2023/01/16 05:04:15;;;;;;;8.77;3.50;;;4.30;99.90;;;;;;5023008;28;20221;-68
2023/01/16 05:06:42;;;;;;;10.53;3.70;;;4.30;99.90;;;;;;5031669;28;20300;-68
2023/01/16 05:09:09;;;;;;;11.83;4.20;;;4.30;99.90;;;;;;5024601;28;20685;-68
2023/01/16 05:11:36;;;;;;;8.93;3.67;;;4.40;99.90;;;;;;5028360;28;20290;-69
2023/01/16 05:14:05;;;;;;;9.20;3.77;;;4.40;99.90;;;;;;5024527;28;20209;-68
2023/01/16 05:16:31;;;;;;;13.93;3.97;;;4.40;99.90;;;;;;5019328;28;20227;-68
2023/01/16 05:18:59;;;;;;;7.73;3.83;;;4.40;99.90;;;;;;5028631;28;20292;-68
2023/01/16 05:21:25;;;;;;;12.33;3.70;;;4.40;99.90;;;;;;5021062;28;20303;-69
2023/01/16 05:23:52;;;;;;;7.27;3.40;;;4.40;99.90;;;;;;5024439;28;20325;-69
2023/01/16 05:26:19;;;;;;;8.67;3.33;;;4.40;99.90;;;;;;5027214;28;20234;-69
2023/01/16 05:28:46;;;;;;;8.87;2.90;;;4.30;99.90;;;;;;5023986;28;20212;-69
2023/01/16 05:31:12;;;;;;;7.93;3.43;;;4.30;99.90;;;;;;5028304;28;20222;-69
2023/01/16 05:33:39;;;;;;;8.10;3.40;;;4.30;99.90;;;;;;5019154;28;20197;-68
2023/01/16 05:36:06;;;;;;;10.43;3.67;;;4.20;99.90;;;;;;5023349;28;20293;-68
2023/01/16 05:38:33;;;;;;;10.67;3.53;;;4.30;99.90;;;;;;5022620;28;20535;-68
2023/01/16 05:41:00;;;;;;;7.63;2.50;;;4.20;99.90;;;;;;5026881;28;20233;-69
2023/01/16 05:43:26;;;;;;;8.30;3.20;;;4.20;99.90;;;;;;5026398;28;20218;-68
2023/01/16 05:45:53;;;;;;;10.33;3.07;;;4.20;99.90;;;;;;5028130;28;20190;-70
2023/01/16 05:48:20;;;;;;;8.17;3.43;;;4.20;99.90;;;;;;5026439;28;20989;-70
2023/01/16 05:50:46;;;;;;;7.67;2.93;;;4.20;99.90;;;;;;5026711;28;20195;-69
2023/01/16 05:53:13;;;;;;;14.53;3.27;;;4.20;99.90;;;;;;5023106;28;20205;-69
2023/01/16 05:55:47;;;;;;;8.00;3.73;;;4.20;99.90;;;;;;5021242;28;20230;-68
2023/01/16 05:58:15;;;;;;;10.00;3.80;;;4.20;99.90;;;;;;5022947;28;20226;-68
2023/01/16 06:00:43;;;;;;;8.63;3.83;;;4.20;99.90;;;;;;5027302;28;20208;-68
2023/01/16 06:03:09;;;;;;;6.77;3.13;;;4.20;99.90;;;;;;5019821;28;20240;-69
2023/01/16 06:05:36;;;;;;;9.27;3.20;;;4.20;99.90;;;;;;5030573;28;20284;-69
2023/01/16 06:08:04;;;;;;;10.17;3.23;;;4.20;99.90;;;;;;5024452;28;20230;-69
2023/01/16 06:10:31;;;;;;;6.60;3.03;;;4.20;99.90;;;;;;5026467;28;20272;-69
2023/01/16 06:13:00;;;;;;;5.93;3.20;;;4.20;99.90;;;;;;5022950;28;20213;-69
2023/01/16 06:15:28;;;;;;;8.67;3.60;;;4.30;99.90;;;;;;5024544;28;20309;-68
2023/01/16 06:17:55;;;;;;;5.30;3.10;;;4.30;99.90;;;;;;5028586;28;20218;-69
2023/01/16 06:20:22;;;;;;;10.27;2.90;;;4.30;99.90;;;;;;5030862;28;20823;-69
2023/01/16 06:22:49;;;;;;;8.13;3.73;;;4.30;99.90;;;;;;5027691;28;20268;-69
2023/01/16 06:25:15;;;;;;;7.50;2.80;;;4.40;99.90;;;;;;5021457;28;20198;-69
2023/01/16 06:27:46;;;;;;;4.47;2.50;;;4.40;99.90;;;;;;5033304;28;20309;-69
2023/01/16 06:30:13;;;;;;;5.70;2.50;;;4.40;99.90;;;;;;5032062;28;20297;-69
2023/01/16 06:32:40;;;;;;;7.27;3.00;;;4.40;99.90;;;;;;5020971;28;20301;-69
2023/01/16 06:35:07;;;;;;;4.57;2.10;;;4.40;99.90;;;;;;5024254;28;20313;-69
2023/01/16 06:37:34;;;;;;;9.43;2.57;;;4.50;99.90;;;;;;5022653;28;20211;-68
2023/01/16 06:40:01;;;;;;;6.37;2.30;;;4.60;99.90;;;;;;5028801;28;20324;-69
2023/01/16 06:42:28;;;;;;;8.93;2.33;;;4.60;99.90;;;;;;5024191;28;20318;-69
2023/01/16 06:44:54;;;;;;;13.90;2.27;;;4.60;99.90;;;;;;5024791;28;20210;-68
2023/01/16 06:47:22;;;;;;;7.33;2.20;;;4.60;99.90;;;;;;5030407;28;20225;-69
2023/01/16 06:49:48;;;;;;;4.70;1.93;;;4.60;99.90;;;;;;5022383;28;20793;-69
2023/01/16 06:52:15;;;;;;;7.60;2.40;;;4.70;99.90;;;;;;5023502;28;20206;-69
2023/01/16 06:54:42;;;;;;;6.43;2.00;;;4.70;99.90;;;;;;5022881;28;20210;-69
2023/01/16 06:57:08;;;;;;;5.50;2.30;;;4.80;99.90;;;;;;5029694;28;20713;-69
2023/01/16 06:59:35;;;;;;;6.37;2.30;;;4.80;99.90;;;;;;5027171;28;20666;-69
2023/01/16 07:02:02;;;;;;;10.53;2.80;;;4.80;99.90;;;;;;5027481;28;20566;-69
2023/01/16 07:04:28;;;;;;;6.30;2.63;;;4.80;99.90;;;;;;5027656;28;20236;-69
2023/01/16 07:06:55;;;;;;;7.40;2.80;;;4.90;99.90;;;;;;5023735;28;20214;-69
2023/01/16 07:09:28;;;;;;;5.90;2.50;;;4.90;99.90;;;;;;5027044;28;20571;-69
2023/01/16 07:11:55;;;;;;;7.77;2.83;;;5.00;99.90;;;;;;5020391;28;20970;-69
2023/01/16 07:22:45;;;;;;;5.90;4.13;;;5.00;99.90;;;;;;5028923;28;20239;-69
2023/01/16 07:25:23;;;;;;;7.57;4.10;;;5.00;99.90;;;;;;5022257;28;20240;-68
2023/01/16 07:27:50;;;;;;;8.83;4.00;;;5.00;99.90;;;;;;5027681;28;20207;-68
2023/01/16 07:30:19;;;;;;;8.43;4.20;;;5.10;99.90;;;;;;5024391;28;20215;-69
2023/01/16 07:32:46;;;;;;;9.37;4.80;;;5.00;99.90;;;;;;5023483;28;20257;-69
2023/01/16 07:35:13;;;;;;;8.23;4.50;;;5.00;99.90;;;;;;5030784;28;20643;-68
2023/01/16 07:37:40;;;;;;;8.97;4.60;;;5.00;99.90;;;;;;5027105;28;20213;-68
2023/01/16 07:40:07;;;;;;;9.17;5.30;;;5.00;99.90;;;;;;5030732;28;20233;-68
2023/01/16 07:42:34;;;;;;;8.10;5.03;;;4.90;99.90;;;;;;5020991;28;20321;-67
2023/01/16 07:45:01;;;;;;;11.07;5.43;;;4.90;99.90;;;;;;5027281;28;20249;-68
2023/01/16 07:47:27;;;;;;;11.00;5.03;;;4.90;99.90;;;;;;5026533;28;20252;-67
2023/01/16 07:49:56;;;;;;;10.00;5.87;;;4.90;99.90;;;;;;5028883;28;20301;-67
2023/01/16 07:52:26;;;;;;;12.37;5.10;;;4.90;99.90;;;;;;5025654;28;20303;-69
2023/01/16 07:54:52;;;;;;;10.00;4.93;;;4.90;99.90;;;;;;5023913;28;20210;-68
2023/01/16 07:57:19;;;;;;;8.60;4.33;;;4.90;99.90;;;;;;5037137;28;20207;-69
2023/01/16 07:59:46;;;;;;;7.30;3.77;;;4.90;99.90;;;;;;5021154;28;20214;-68
2023/01/16 08:02:12;;;;;;;9.63;3.90;;;4.90;99.90;;;;;;5031903;28;20223;-68
2023/01/16 08:04:39;;;;;;;10.07;3.93;;;4.80;99.90;;;;;;5027379;28;20328;-68
2023/01/16 08:07:06;;;;;;;6.27;3.50;;;4.80;99.90;;;;;;5033922;28;20343;-68
2023/01/16 08:09:32;;;;;;;9.53;4.60;;;4.80;99.90;;;;;;5058644;28;20232;-68
2023/01/16 08:12:01;;;;;;;4.90;3.20;;;4.80;99.90;;;;;;5026316;28;20264;-68
2023/01/16 08:14:28;;;;;;;5.77;2.90;;;4.90;99.90;;;;;;5027270;28;20633;-69
2023/01/16 08:16:55;;;;;;;8.03;3.57;;;4.90;99.90;;;;;;5030941;28;20221;-68
2023/01/16 08:19:21;;;;;;;4.93;2.83;;;4.90;99.90;;;;;;5029068;28;20202;-68
2023/01/16 08:21:48;;;;;;;3.40;2.67;;;4.80;99.90;;;;;;5029006;28;20218;-67
2023/01/16 08:24:15;;;;;;;7.33;3.13;;;4.90;99.90;;;;;;5021084;28;20237;-67
2023/01/16 08:26:42;;;;;;;5.27;3.23;;;4.90;99.90;;;;;;5030059;28;20658;-67
2023/01/16 08:29:10;;;;;;;4.40;2.93;;;4.90;99.90;;;;;;5026525;28;20219;-68
2023/01/16 08:31:37;;;;;;;5.87;3.23;;;4.90;99.90;;;;;;5029846;28;20218;-67
2023/01/16 08:34:04;;;;;;;6.50;3.80;;;4.80;99.90;;;;;;5029072;28;20690;-68
2023/01/16 08:36:31;;;;;;;5.57;3.60;;;4.80;99.90;;;;;;5026273;28;20297;-69
2023/01/16 08:38:57;;;;;;;8.47;3.80;;;4.80;99.90;;;;;;5024062;28;20341;-67
2023/01/16 08:52:34;;;;;;;6.80;3.83;;;4.70;99.90;;;;;;5028975;28;20210;-68
2023/01/16 08:55:01;;;;;;;4.00;3.10;;;4.70;99.90;;;;;;5019853;28;20357;-68
2023/01/16 08:57:28;;;;;;;6.67;3.30;;;4.70;99.90;;;;;;5028083;28;20206;-68
2023/01/16 08:59:56;;;;;;;8.17;3.53;;;4.70;99.90;;;;;;5024117;28;20218;-68
2023/01/16 09:02:24;;;;;;;3.63;2.97;;;4.70;99.90;;;;;;5028610;28;20225;-68
2023/01/16 09:04:51;;;;;;;8.13;3.27;;;4.60;99.90;;;;;;5025190;28;20325;-68
2023/01/16 09:07:17;;;;;;;4.73;3.30;;;4.70;99.90;;;;;;5028155;28;20246;-68
2023/01/16 09:09:44;;;;;;;6.37;3.30;;;4.60;99.90;;;;;;5026464;28;20211;-66
2023/01/16 09:14:58;;;;;;;8.37;3.30;;;4.70;99.90;;;;;;5024335;28;20689;-66
2023/01/16 09:17:25;;;;;;;5.37;3.27;;;4.70;99.90;;;;;;5021668;28;20220;-68
2023/01/16 09:19:53;;;;;;;7.40;3.00;;;4.70;99.90;;;;;;5028524;28;20310;-68
2023/01/16 09:22:20;;;;;;;4.70;3.47;;;4.70;99.90;;;;;;5029119;28;20218;-68
2023/01/16 09:24:46;;;;;;;6.53;3.90;;;4.70;99.90;;;;;;5029290;28;20304;-68
2023/01/16 09:27:13;;;;;;;5.90;3.70;;;4.70;99.90;;;;;;5024489;28;20215;-66
2023/01/16 09:29:41;;;;;;;7.10;3.80;;;4.70;99.90;;;;;;5027092;28;20211;-69
2023/01/16 09:32:08;;;;;;;5.60;3.30;;;4.70;99.90;;;;;;5022946;28;20264;-67
2023/01/16 09:34:36;;;;;;;5.77;3.20;;;4.70;99.90;;;;;;5029290;28;20220;-69
2023/01/16 09:37:04;;;;;;;4.60;2.80;;;4.70;99.90;;;;;;5024222;28;20204;-69
2023/01/16 09:39:32;;;;;;;6.37;3.07;;;4.70;99.90;;;;;;5026257;28;20594;-68
2023/01/16 09:45:05;;;;;;;5.20;3.13;;;4.80;99.90;;;;;;5027318;28;20234;-68
2023/01/16 09:47:33;;;;;;;7.23;2.73;;;4.90;99.90;;;;;;5025078;28;20247;-69
2023/01/16 09:50:06;;;;;;;6.67;2.93;;;4.80;99.90;;;;;;5029025;28;20293;-68
2023/01/16 09:58:36;;;;;;;4.90;2.73;;;4.80;99.90;;;;;;5028543;28;20222;-69
2023/01/16 10:01:12;;;;;;;4.60;3.00;;;4.80;99.90;;;;;;5024485;28;20761;-68
2023/01/16 10:03:42;;;;;;;7.43;3.33;;;4.90;99.90;;;;;;5031867;28;20372;-67
2023/01/16 10:06:31;;;;;;;5.67;3.33;;;4.90;99.90;;;;;;5025682;28;20348;-68
2023/01/16 10:09:13;;;;;;;7.43;3.30;;;4.90;99.90;;;;;;5029090;28;20297;-69
2023/01/16 10:11:45;;;;;;;5.70;3.70;;;5.00;99.90;;;;;;5026278;28;20220;-69
2023/01/16 10:14:38;;;;;;;8.50;3.43;;;5.00;99.90;;;;;;5028414;28;20237;-69
2023/01/16 10:17:15;;;;;;;4.17;2.97;;;5.00;99.90;;;;;;5029572;28;20222;-67
2023/01/16 10:20:26;;;;;;;7.30;3.57;;;5.00;99.90;;;;;;5032906;28;20202;-69
2023/01/16 10:23:07;;;;;;;8.67;4.77;;;5.00;99.90;;;;;;5024608;28;20704;-67
2023/01/16 10:25:43;;;;;;;7.17;3.97;;;5.10;99.90;;;;;;5030585;28;20206;-68
2023/01/16 10:28:35;;;;;;;7.73;4.50;;;5.10;99.90;;;;;;5031178;28;20217;-68
2023/01/16 10:31:09;;;;;;;7.00;4.40;;;5.20;99.90;;;;;;5022340;28;20241;-69
2023/01/16 10:34:00;;;;;;;6.00;4.27;;;5.20;99.90;;;;;;5046111;28;20213;-68
2023/01/16 10:36:32;;;;;;;5.97;4.00;;;5.20;99.90;;;;;;5028412;28;20302;-68
2023/01/16 10:39:00;;;;;;;6.17;4.33;;;5.20;99.90;;;;;;5024993;28;20237;-68
2023/01/16 10:50:10;;;;;;;6.50;4.07;;;5.20;99.90;;;;;;5025621;28;20236;-68
2023/01/16 10:52:37;;;;;;;6.83;4.43;;;5.20;99.90;;;;;;5026480;28;20666;-69
2023/01/16 10:55:05;;;;;;;8.53;4.43;;;5.20;99.90;;;;;;5021793;28;20261;-67
2023/01/16 10:57:32;;;;;;;7.27;4.03;;;5.20;99.90;;;;;;5025448;28;20667;-67
2023/01/16 11:00:08;;;;;;;11.80;4.97;;;5.10;99.90;;;;;;5030910;28;20582;-67
2023/01/16 11:02:43;;;;;;;6.80;4.77;;;5.20;99.90;;;;;;5032391;28;20745;-66
2023/01/16 11:05:30;;;;;;;6.07;4.43;;;5.20;99.90;;;;;;5026370;28;20262;-67
2023/01/16 11:08:11;;;;;;;6.23;4.60;;;5.30;99.90;;;;;;5029028;28;20207;-69
2023/01/16 11:10:40;;;;;;;4.90;3.53;;;5.30;99.90;;;;;;5025627;28;20653;-69
2023/01/16 11:18:58;;;;;;;8.80;4.50;;;5.30;99.90;;;;;;5028152;28;20206;-68
2023/01/16 11:21:30;;;;;;;5.80;3.90;;;5.30;99.90;;;;;;5030972;28;20262;-68
2023/01/16 11:24:13;;;;;;;8.73;4.27;;;5.30;99.90;;;;;;5025690;28;20232;-68
2023/01/16 11:26:45;;;;;;;5.33;4.40;;;5.40;99.90;;;;;;5035203;28;20203;-69
2023/01/16 11:29:16;;;;;;;7.17;4.27;;;5.40;99.90;;;;;;5059932;28;20208;-69
2023/01/16 11:31:56;;;;;;;8.33;4.50;;;5.50;99.90;;;;;;5022861;28;20329;-68
2023/01/16 11:34:26;;;;;;;9.47;4.50;;;5.50;99.90;;;;;;5033757;28;20692;-69
2023/01/16 11:37:02;;;;;;;8.37;4.40;;;5.50;99.90;;;;;;5026790;28;20211;-69
2023/01/16 11:39:32;;;;;;;7.63;5.03;;;5.50;99.90;;;;;;5026557;28;20233;-69
2023/01/16 11:47:42;;;;;;;9.27;4.43;;;5.50;99.90;;;;;;5027221;28;20316;-67
2023/01/16 11:50:30;;;;;;;6.50;4.13;;;5.50;99.90;;;;;;5024652;28;20301;-67
2023/01/16 11:52:57;;;;;;;6.40;4.13;;;5.50;99.90;;;;;;5028014;28;20225;-69
2023/01/16 11:55:36;;;;;;;6.73;4.17;;;5.50;99.90;;;;;;5028281;28;20304;-67
2023/01/16 11:58:14;;;;;;;5.90;4.00;;;5.50;99.90;;;;;;5025349;28;20211;-68
2023/01/16 12:00:58;;;;;;;4.63;3.60;;;5.50;99.90;;;;;;5027547;28;20218;-68
2023/01/16 12:03:45;;;;;;;5.63;3.30;;;5.50;99.90;;;;;;5028092;28;20209;-68
2023/01/16 12:06:42;;;;;;;5.57;3.37;;;5.50;99.90;;;;;;5024095;28;20776;-68
2023/01/16 12:09:54;;;;;;;4.50;2.87;;;5.60;99.90;;;;;;5022681;28;20524;-67
2023/01/16 12:15:50;;;;;;;4.00;2.83;;;5.60;99.90;;;;;;5025854;28;20712;-68
2023/01/16 12:18:33;;;;;;;4.00;2.47;;;5.70;99.90;;;;;;5027559;28;20298;-69
2023/01/16 12:21:02;;;;;;;4.40;2.70;;;5.80;99.90;;;;;;5023999;28;20551;-69
2023/01/16 12:23:58;;;;;;;4.87;2.80;;;5.90;99.90;;;;;;5029011;28;20285;-68
2023/01/16 12:26:35;;;;;;;2.13;1.93;;;6.00;99.90;;;;;;5028014;28;20680;-69
2023/01/16 12:29:23;;;;;;;2.60;2.10;;;6.00;99.90;;;;;;5028155;28;20204;-69
2023/01/16 12:32:13;;;;;;;4.07;3.30;;;6.00;99.90;;;;;;5028379;28;20245;-68
2023/01/16 12:35:08;;;;;;;2.50;2.20;;;6.00;99.90;;;;;;5028016;28;20203;-68
2023/01/16 12:37:48;;;;;;;4.07;2.00;;;6.00;99.90;;;;;;5026067;28;20657;-67
2023/01/16 12:40:32;;;;;;;6.63;2.00;;;6.00;99.90;;;;;;5027853;28;20709;-70
2023/01/16 12:43:25;;;;;;;3.07;2.00;;;6.00;99.90;;;;;;5026233;28;20314;-68
2023/01/16 12:46:10;;;;;;;4.60;2.10;;;6.00;99.90;;;;;;5029981;28;20591;-68
2023/01/16 12:48:57;;;;;;;2.53;2.10;;;6.00;99.90;;;;;;5025699;28;20204;-68
2023/01/16 12:51:33;;;;;;;2.00;1.80;;;6.00;99.90;;;;;;5027207;28;20685;-68
2023/01/16 12:54:21;;;;;;;2.33;2.10;;;6.00;99.90;;;;;;5020687;28;20230;-68
2023/01/16 12:57:09;;;;;;;4.50;1.90;;;6.10;99.90;;;;;;5018765;28;20209;-68
2023/01/16 12:59:49;;;;;;;4.20;1.90;;;6.10;99.90;;;;;;5030457;28;20203;-68
2023/01/16 13:02:24;;;;;;;5.17;2.20;;;6.20;99.90;;;;;;5056402;28;20339;-69
2023/01/16 13:05:05;;;;;;;4.13;1.80;;;6.20;99.90;;;;;;5030984;28;20253;-68
2023/01/16 13:07:38;;;;;;;1.97;1.70;;;6.30;99.90;;;;;;5027760;28;20196;-69
2023/01/16 13:16:08;;;;;;;3.03;1.80;;;6.30;99.90;;;;;;5023328;28;20622;-69
2023/01/16 13:18:43;;;;;;;3.57;1.90;;;6.30;99.90;;;;;;5015317;28;20226;-70
2023/01/16 13:21:19;;;;;;;3.93;1.63;;;6.30;99.90;;;;;;5021988;28;20199;-68
2023/01/16 13:23:51;;;;;;;3.00;2.07;;;6.30;99.90;;;;;;5016218;28;20244;-68
2023/01/16 13:26:19;;;;;;;3.33;1.80;;;6.40;99.90;;;;;;5031566;28;20198;-68
2023/01/16 13:28:50;;;;;;;2.93;1.57;;;6.40;99.90;;;;;;5029562;28;20295;-69
2023/01/16 13:31:41;;;;;;;2.67;1.73;;;6.50;99.90;;;;;;5029741;28;20588;-70
2023/01/16 13:34:30;;;;;;;2.13;1.60;;;6.50;99.90;;;;;;5033181;28;20211;-70
2023/01/16 13:37:18;;;;;;;2.23;1.43;;;6.50;99.90;;;;;;5024506;28;20204;-69
2023/01/16 13:39:56;;;;;;;2.57;1.80;;;6.50;99.90;;;;;;5028980;28;20249;-69
2023/01/16 13:42:25;;;;;;;1.83;1.73;;;6.50;99.90;;;;;;5033393;28;20263;-68
2023/01/16 13:47:52;;;;;;;5.07;1.97;;;6.40;99.90;;;;;;5026903;28;20212;-68
2023/01/16 13:50:26;;;;;;;4.83;2.17;;;6.30;99.90;;;;;;5025016;28;20201;-69
2023/01/16 13:53:00;;;;;;;3.87;2.70;;;6.30;99.90;;;;;;5018790;28;20200;-68
2023/01/16 13:55:31;;;;;;;2.70;2.43;;;6.30;99.90;;;;;;5028961;28;20204;-69
2023/01/16 13:58:22;;;;;;;2.63;2.10;;;6.30;99.90;;;;;;5031543;28;20649;-68
2023/01/16 14:01:01;;;;;;;2.43;2.20;;;6.20;99.90;;;;;;5024684;28;20213;-69
2023/01/16 14:03:33;;;;;;;2.57;2.20;;;6.20;99.90;;;;;;5021061;28;20203;-68
2023/01/16 14:06:16;;;;;;;2.60;2.17;;;6.20;99.90;;;;;;5029359;28;20676;-68
2023/01/16 14:09:14;;;;;;;2.40;2.20;;;6.20;99.90;;;;;;5027169;28;20211;-69
2023/01/16 14:12:00;;;;;;;4.73;2.30;;;6.10;99.90;;;;;;5011450;28;20773;-69
2023/01/16 14:17:19;;;;;;;4.03;2.30;;;6.10;99.90;;;;;;5029222;28;20277;-68
2023/01/16 14:20:01;;;;;;;3.63;2.33;;;6.10;99.90;;;;;;5027163;28;20203;-69
2023/01/16 14:25:06;;;;;;;2.60;2.00;;;6.10;99.90;;;;;;5027948;28;20244;-69
2023/01/16 14:27:41;;;;;;;2.43;1.93;;;6.10;99.90;;;;;;5024204;28;20264;-70
2023/01/16 14:30:18;;;;;;;2.07;1.87;;;6.00;99.90;;;;;;5027185;28;20243;-68
2023/01/16 14:32:48;;;;;;;2.20;2.00;;;6.00;99.90;;;;;;5036107;28;20246;-68
2023/01/16 14:35:18;;;;;;;2.57;2.20;;;5.90;99.90;;;;;;5034782;28;20210;-68
2023/01/16 14:37:55;;;;;;;3.30;2.20;;;6.00;99.90;;;;;;5031392;28;20618;-69
2023/01/16 14:55:40;;;;;;;3.87;3.20;;;5.90;99.90;;;;;;5026555;28;20198;-68
2023/01/16 14:58:12;;;;;;;3.83;2.77;;;5.90;99.90;;;;;;5031293;28;20194;-68